Oak Island, Minnesota
Current Conditions -  °F | °C
As of 1:14 AM on Friday 19 Dec 2014 (Local Time) from KFGN Reporting Station
Overcast Overcast  
Wind Chill:   Ceiling: 7500
Heat Index: 18°   Visibility: 10mi
Dew Point: 16°   Wind: 13mph
Humidity: 93%   Direction: 160°SSE
Pressure: 30.16"   Gusts: NA
Location:  49.3°N, 94.86°W
Report Text: KFGN 190714Z AUTO 16011KT 10SM SCT060 OVC075 M08/M09 A3016 RMK AO2
Loading
Personal Weather Stations






























Interactive Weather Map New forecast layout! Learn more

10-Day Weather Forecast

Advertisements
Track Severe Weather on mobile